createdAt,value
2023-08-22T00:00:14.368Z,15.02
2023-08-22T00:03:18.596Z,14.45
2023-08-22T00:06:22.384Z,12.00
2023-08-22T00:09:26.906Z,11.27
2023-08-22T00:12:30.335Z,11.30
2023-08-22T00:15:33.485Z,11.10
2023-08-22T00:18:36.754Z,12.20
2023-08-22T00:21:39.814Z,12.77
2023-08-22T00:24:44.323Z,11.50
2023-08-22T00:27:47.404Z,12.82
2023-08-22T00:30:50.507Z,11.90
2023-08-22T00:33:53.613Z,10.63
2023-08-22T00:36:56.736Z,13.13
2023-08-22T00:40:01.432Z,12.00
2023-08-22T00:43:04.897Z,11.45
2023-08-22T00:46:08.235Z,12.80
2023-08-22T00:49:11.899Z,11.23
2023-08-22T00:52:15.880Z,11.95
2023-08-22T00:55:21.259Z,11.30
2023-08-22T00:58:25.143Z,12.10
2023-08-22T01:01:28.835Z,12.40
2023-08-22T01:04:31.872Z,14.00
2023-08-22T01:07:43.933Z,11.23
2023-08-22T01:10:54.370Z,11.70
2023-08-22T01:13:58.990Z,11.20
2023-08-22T01:17:02.818Z,11.70
2023-08-22T01:20:08.897Z,11.93
2023-08-22T01:23:13.346Z,11.85
2023-08-22T01:26:17.484Z,11.60
2023-08-22T01:29:32.206Z,11.05
2023-08-22T01:32:40.741Z,11.52
2023-08-22T01:35:48.527Z,11.40
2023-08-22T01:38:55.593Z,11.43
2023-08-22T01:42:00.370Z,11.77
2023-08-22T01:45:04.032Z,12.30
2023-08-22T01:48:07.765Z,12.07
2023-08-22T01:51:11.044Z,11.40
2023-08-22T01:54:16.139Z,13.00
2023-08-22T01:57:19.243Z,12.65
2023-08-22T02:00:23.222Z,11.30
2023-08-22T02:03:26.406Z,11.52
2023-08-22T02:06:29.521Z,11.32
2023-08-22T02:09:34.092Z,11.43
2023-08-22T02:12:37.151Z,11.65
2023-08-22T02:15:40.390Z,11.75
2023-08-22T02:18:43.605Z,13.40
2023-08-22T02:21:46.743Z,11.77
2023-08-22T02:24:51.232Z,11.00
2023-08-22T02:27:54.333Z,11.40
2023-08-22T02:30:57.600Z,11.80
2023-08-22T02:34:00.718Z,12.10
2023-08-22T02:37:04.137Z,11.70
2023-08-22T02:40:10.601Z,11.10
2023-08-22T02:43:13.734Z,10.90
2023-08-22T02:46:17.223Z,11.15
2023-08-22T02:49:20.190Z,10.88
2023-08-22T02:52:23.272Z,10.82
2023-08-22T02:55:27.886Z,10.63
2023-08-22T02:58:31.966Z,10.70
2023-08-22T03:01:35.124Z,11.68
2023-08-22T03:04:38.873Z,10.90
2023-08-22T03:07:42.231Z,11.05
2023-08-22T03:10:47.088Z,11.33
2023-08-22T03:13:50.209Z,10.20
2023-08-22T03:16:53.800Z,10.57
2023-08-22T03:19:57.019Z,11.03
2023-08-22T03:23:00.682Z,11.13
2023-08-22T03:26:08.182Z,12.15
2023-08-22T03:29:11.245Z,12.00
2023-08-22T03:32:14.290Z,13.47
2023-08-22T03:35:17.275Z,12.73
2023-08-22T03:38:20.641Z,13.60
2023-08-22T03:41:25.568Z,13.60
2023-08-22T03:44:28.621Z,12.80
2023-08-22T03:47:31.712Z,13.07
2023-08-22T03:50:34.869Z,12.65
2023-08-22T03:53:39.276Z,12.13
2023-08-22T03:56:43.703Z,13.20
2023-08-22T03:59:46.753Z,12.95
2023-08-22T04:02:49.874Z,13.38
2023-08-22T04:05:53.137Z,12.60
2023-08-22T04:08:56.276Z,12.20
2023-08-22T04:12:01.310Z,12.80
2023-08-22T04:15:04.784Z,13.43
2023-08-22T04:18:08.415Z,13.15
2023-08-22T04:21:11.577Z,11.98
2023-08-22T04:24:14.641Z,12.02
2023-08-22T04:27:19.870Z,11.35
2023-08-22T04:30:23.411Z,12.30
2023-08-22T04:33:26.546Z,12.63
2023-08-22T04:36:29.587Z,12.53
2023-08-22T04:39:32.653Z,12.90
2023-08-22T04:42:37.129Z,13.60
2023-08-22T04:45:40.204Z,12.90
2023-08-22T04:48:43.225Z,13.60
2023-08-22T04:51:46.295Z,12.68
2023-08-22T04:54:50.609Z,21.88
2023-08-22T04:57:55.113Z,35.78
2023-08-22T05:00:58.319Z,18.02
2023-08-22T05:04:01.358Z,15.00
2023-08-22T05:07:04.458Z,13.97
2023-08-22T05:10:08.238Z,14.70
2023-08-22T05:13:13.128Z,12.85
2023-08-22T05:16:16.292Z,13.80
2023-08-22T05:19:19.509Z,13.50
2023-08-22T05:22:22.577Z,14.73
2023-08-22T05:25:25.736Z,15.70
2023-08-22T05:28:30.260Z,15.90
2023-08-22T05:31:34.775Z,15.33
2023-08-22T05:34:37.878Z,15.90
2023-08-22T05:37:41.244Z,15.30
2023-08-22T05:40:44.808Z,16.33
2023-08-22T05:43:49.206Z,16.17
2023-08-22T05:46:52.213Z,14.85
2023-08-22T05:49:55.309Z,15.13
2023-08-22T05:52:58.349Z,15.02
2023-08-22T05:56:01.464Z,15.50
2023-08-22T05:59:06.006Z,14.80
2023-08-22T06:02:09.069Z,14.37
2023-08-22T06:05:12.115Z,14.70
2023-08-22T06:08:15.423Z,16.23
2023-08-22T06:11:18.438Z,15.40
2023-08-22T06:14:22.918Z,14.50
2023-08-22T06:17:25.994Z,16.85
2023-08-22T06:20:29.076Z,13.70
2023-08-22T06:23:32.164Z,14.40
2023-08-22T06:26:35.276Z,13.00
2023-08-22T06:29:39.948Z,13.05
2023-08-22T06:32:43.093Z,12.85
2023-08-22T06:35:48.502Z,13.30
2023-08-22T06:38:51.698Z,12.43
2023-08-22T06:41:54.761Z,12.13
2023-08-22T06:44:59.264Z,13.27
2023-08-22T06:48:02.481Z,13.25
2023-08-22T06:51:05.570Z,12.35
2023-08-22T06:54:08.660Z,13.10
2023-08-22T06:57:11.766Z,12.40
2023-08-22T07:00:18.291Z,12.60
2023-08-22T07:03:21.388Z,12.30
2023-08-22T07:06:24.643Z,11.60
2023-08-22T07:09:27.868Z,12.90
2023-08-22T07:12:30.954Z,12.73
2023-08-22T07:15:36.131Z,12.87
2023-08-22T07:18:39.352Z,12.60
2023-08-22T07:21:42.371Z,12.82
2023-08-22T07:24:45.474Z,13.47
2023-08-22T07:27:48.510Z,13.57
2023-08-22T07:30:54.936Z,13.50
2023-08-22T07:33:58.020Z,13.90
2023-08-22T07:37:01.208Z,13.13
2023-08-22T07:40:05.910Z,12.93
2023-08-22T07:43:09.301Z,12.73
2023-08-22T07:46:13.729Z,13.50
2023-08-22T07:49:16.876Z,13.30
2023-08-22T07:52:19.905Z,13.00
2023-08-22T07:55:24.828Z,13.45
2023-08-22T07:58:27.992Z,13.70
2023-08-22T08:01:34.247Z,14.70
2023-08-22T08:04:37.231Z,13.77
2023-08-22T08:07:40.838Z,12.60
2023-08-22T08:10:43.876Z,13.10
2023-08-22T08:13:46.970Z,12.90
2023-08-22T08:16:51.432Z,12.40
2023-08-22T08:19:54.551Z,12.85
2023-08-22T08:22:57.704Z,12.75
2023-08-22T08:26:00.789Z,13.07
2023-08-22T08:29:03.919Z,14.10
2023-08-22T08:32:08.449Z,13.00
2023-08-22T08:35:11.823Z,12.63
2023-08-22T08:38:15.435Z,13.00
2023-08-22T08:41:21.898Z,12.25
2023-08-22T08:44:27.510Z,12.30
2023-08-22T08:47:32.782Z,11.80
2023-08-22T08:50:39.166Z,11.48
2023-08-22T08:53:43.644Z,11.27
2023-08-22T08:56:46.678Z,11.80
2023-08-22T08:59:49.942Z,11.40
2023-08-22T09:02:54.818Z,12.07
2023-08-22T09:05:58.010Z,11.40
2023-08-22T09:09:06.895Z,11.07
2023-08-22T09:12:11.694Z,11.07
2023-08-22T09:15:20.332Z,10.93
2023-08-22T09:18:24.876Z,10.50
2023-08-22T09:21:27.995Z,10.60
2023-08-22T09:24:33.461Z,10.50
2023-08-22T09:27:37.523Z,10.40
2023-08-22T09:30:48.745Z,9.70
2023-08-22T09:33:53.452Z,9.73
2023-08-22T09:36:56.803Z,10.10
2023-08-22T09:39:59.946Z,9.90
2023-08-22T09:43:03.584Z,9.20
2023-08-22T09:46:07.084Z,9.75
2023-08-22T09:49:16.389Z,9.60
2023-08-22T09:52:20.112Z,9.18
2023-08-22T09:55:23.568Z,9.40
2023-08-22T09:58:30.876Z,8.40
2023-08-22T10:01:35.700Z,8.98
2023-08-22T10:04:41.433Z,8.40
2023-08-22T10:07:44.876Z,8.87
2023-08-22T10:10:50.123Z,8.10
2023-08-22T10:13:54.649Z,8.95
2023-08-22T10:16:58.430Z,8.20
2023-08-22T10:20:07.317Z,8.15
2023-08-22T10:23:10.665Z,8.40
2023-08-22T10:26:15.752Z,8.20
2023-08-22T10:29:20.225Z,8.07
2023-08-22T10:32:25.986Z,8.80
2023-08-22T10:35:30.389Z,8.00
2023-08-22T10:38:57.041Z,8.83
2023-08-22T10:42:03.112Z,8.80
2023-08-22T10:45:18.224Z,9.17
2023-08-22T10:48:23.387Z,8.87
2023-08-22T10:51:45.391Z,8.80
2023-08-22T10:55:07.362Z,9.15
2023-08-22T10:58:44.339Z,8.80
2023-08-22T11:01:49.271Z,8.63
2023-08-22T11:04:54.266Z,9.48
2023-08-22T11:07:58.753Z,9.05
2023-08-22T11:11:03.291Z,9.00
2023-08-22T11:14:06.338Z,9.20
2023-08-22T11:17:09.494Z,8.77
2023-08-22T11:20:14.036Z,8.80
2023-08-22T11:23:18.597Z,8.40
2023-08-22T11:26:24.148Z,9.05
2023-08-22T11:29:27.492Z,8.10
2023-08-22T11:32:32.266Z,9.25
2023-08-22T11:35:35.374Z,8.80
2023-08-22T11:38:39.892Z,9.18
2023-08-22T11:41:43.144Z,9.40
2023-08-22T11:45:00.282Z,9.43
2023-08-22T11:48:03.524Z,10.32
2023-08-22T11:51:06.873Z,10.07
2023-08-22T11:54:11.417Z,8.80
2023-08-22T11:57:14.469Z,9.10
2023-08-22T12:00:17.867Z,9.00
2023-08-22T12:03:21.005Z,9.60
2023-08-22T12:06:24.179Z,10.00
2023-08-22T12:09:28.724Z,9.40
2023-08-22T12:12:32.032Z,9.43
2023-08-22T12:15:35.616Z,9.05
2023-08-22T12:18:40.564Z,9.00
2023-08-22T12:21:43.597Z,8.65
2023-08-22T12:24:50.931Z,9.05
2023-08-22T12:27:54.236Z,9.30
2023-08-22T12:30:57.530Z,9.20
2023-08-22T12:34:01.604Z,9.30
2023-08-22T12:37:04.684Z,9.00
2023-08-22T12:40:11.881Z,9.20
2023-08-22T12:43:16.019Z,9.10
2023-08-22T12:46:19.205Z,8.90
2023-08-22T12:49:22.426Z,9.00
2023-08-22T12:52:25.506Z,9.70
2023-08-22T12:55:29.966Z,9.27
2023-08-22T12:58:34.207Z,10.32
2023-08-22T13:01:37.404Z,11.77
2023-08-22T13:04:40.601Z,11.10
2023-08-22T13:07:45.216Z,11.00
2023-08-22T13:10:51.268Z,9.80
2023-08-22T13:13:54.390Z,9.83
2023-08-22T13:16:57.484Z,9.40
2023-08-22T13:20:01.337Z,9.50
2023-08-22T13:23:05.914Z,9.77
2023-08-22T13:26:11.042Z,9.40
2023-08-22T13:29:14.412Z,9.38
2023-08-22T13:32:17.688Z,9.60
2023-08-22T13:35:20.726Z,10.10
2023-08-22T13:38:23.779Z,8.70
2023-08-22T13:41:28.449Z,9.20
2023-08-22T13:44:31.546Z,9.20
2023-08-22T13:47:35.096Z,9.00
2023-08-22T13:50:38.316Z,9.75
2023-08-22T13:53:41.560Z,9.35
2023-08-22T13:56:46.064Z,9.20
2023-08-22T13:59:49.399Z,9.52
2023-08-22T14:02:52.571Z,9.50
2023-08-22T14:05:55.758Z,8.98
2023-08-22T14:09:00.825Z,8.65
2023-08-22T14:12:05.692Z,8.98
2023-08-22T14:15:09.836Z,9.20
2023-08-22T14:18:13.559Z,9.10
2023-08-22T14:21:16.738Z,8.77
2023-08-22T14:24:19.866Z,9.70
2023-08-22T14:27:26.595Z,9.63
2023-08-22T14:30:31.503Z,9.73
2023-08-22T14:33:34.567Z,9.97
2023-08-22T14:36:37.621Z,9.95
2023-08-22T14:39:40.710Z,10.00
2023-08-22T14:42:45.114Z,9.88
2023-08-22T14:45:48.147Z,10.63
2023-08-22T14:48:51.683Z,10.27
2023-08-22T14:51:54.778Z,9.85
2023-08-22T14:54:58.266Z,10.20
2023-08-22T14:58:04.086Z,10.55
2023-08-22T15:01:07.585Z,10.00
2023-08-22T15:04:11.102Z,10.35
2023-08-22T15:07:14.282Z,9.87
2023-08-22T15:10:18.039Z,10.33
2023-08-22T15:13:22.579Z,9.52
2023-08-22T15:16:25.796Z,10.20
2023-08-22T15:19:28.864Z,9.83
2023-08-22T15:22:32.828Z,9.80
2023-08-22T15:25:36.409Z,9.50
2023-08-22T15:28:41.466Z,10.33
2023-08-22T15:31:45.137Z,10.90
2023-08-22T15:34:48.416Z,10.90
2023-08-22T15:37:51.484Z,11.80
2023-08-22T15:40:54.554Z,12.80
2023-08-22T15:43:58.978Z,13.50
2023-08-22T15:47:02.111Z,13.60
2023-08-22T15:50:05.396Z,14.00
2023-08-22T15:53:08.419Z,13.67
2023-08-22T15:56:11.517Z,14.00
2023-08-22T15:59:16.026Z,14.73
2023-08-22T16:02:19.133Z,15.00
2023-08-22T16:05:22.251Z,15.88
2023-08-22T16:08:25.346Z,17.00
2023-08-22T16:11:28.452Z,17.67
2023-08-22T16:14:33.016Z,18.30
2023-08-22T16:17:36.108Z,17.27
2023-08-22T16:20:39.189Z,18.23
2023-08-22T16:23:43.063Z,16.90
2023-08-22T16:26:48.638Z,17.50
2023-08-22T16:29:55.498Z,17.30
2023-08-22T16:32:58.541Z,17.60
2023-08-22T16:36:01.712Z,17.87
2023-08-22T16:39:06.152Z,17.57
2023-08-22T16:42:09.311Z,18.05
2023-08-22T16:45:13.905Z,17.60
2023-08-22T16:48:17.651Z,17.80
2023-08-22T16:51:21.033Z,17.40
2023-08-22T16:54:24.138Z,18.00
2023-08-22T16:57:27.310Z,17.30
2023-08-22T17:00:32.608Z,17.65
2023-08-22T17:03:35.969Z,17.48
2023-08-22T17:06:40.462Z,17.37
2023-08-22T17:09:44.166Z,16.27
2023-08-22T17:12:47.280Z,16.52
2023-08-22T17:16:00.127Z,16.65
2023-08-22T17:19:03.301Z,15.98
2023-08-22T17:22:06.457Z,16.13
2023-08-22T17:25:10.779Z,15.65
2023-08-22T17:28:13.862Z,15.90
2023-08-22T17:31:18.445Z,15.60
2023-08-22T17:34:21.620Z,15.20
2023-08-22T17:37:24.826Z,15.33
2023-08-22T17:40:27.853Z,15.33
2023-08-22T17:43:31.254Z,15.30
2023-08-22T17:46:35.817Z,14.97
2023-08-22T17:49:38.918Z,14.77
2023-08-22T17:52:41.993Z,15.05
2023-08-22T17:55:45.320Z,14.98
2023-08-22T17:58:48.359Z,15.27
2023-08-22T18:01:53.296Z,14.95
2023-08-22T18:04:56.512Z,15.45
2023-08-22T18:07:59.733Z,14.85
2023-08-22T18:11:02.937Z,15.30
2023-08-22T18:14:08.076Z,15.00
2023-08-22T18:17:12.620Z,15.02
2023-08-22T18:20:15.885Z,15.20
2023-08-22T18:23:19.020Z,14.73
2023-08-22T18:26:22.069Z,14.70
2023-08-22T18:29:25.130Z,15.65
2023-08-22T18:32:30.519Z,13.30
2023-08-22T18:35:33.643Z,11.33
2023-08-22T18:38:36.673Z,9.57
2023-08-22T18:41:39.782Z,10.10
2023-08-22T18:44:42.842Z,10.40
2023-08-22T18:47:47.412Z,10.57
2023-08-22T18:50:58.942Z,10.68
2023-08-22T18:54:02.166Z,10.55
2023-08-22T18:57:05.496Z,9.85
2023-08-22T19:00:10.345Z,10.25
2023-08-22T19:03:14.957Z,10.90
2023-08-22T19:06:18.290Z,10.83
2023-08-22T19:09:21.326Z,10.60
2023-08-22T19:12:24.843Z,10.80
2023-08-22T19:15:27.961Z,10.88
2023-08-22T19:22:02.383Z,11.50
2023-08-22T19:25:07.335Z,11.60
2023-08-22T19:28:10.369Z,10.98
2023-08-22T19:31:13.552Z,10.40
2023-08-22T19:34:16.774Z,9.60
2023-08-22T19:37:21.266Z,10.25
2023-08-22T19:40:24.326Z,10.57
2023-08-22T19:43:27.565Z,12.18
2023-08-22T19:46:30.645Z,9.57
2023-08-22T19:49:33.791Z,10.00
2023-08-22T19:52:39.243Z,9.73
2023-08-22T19:55:42.415Z,9.80
2023-08-22T19:58:45.573Z,9.48
2023-08-22T20:01:48.866Z,10.05
2023-08-22T20:04:52.411Z,11.20
2023-08-22T20:07:56.947Z,11.20
2023-08-22T20:11:00.046Z,10.57
2023-08-22T20:14:03.152Z,10.40
2023-08-22T20:17:06.346Z,20.30
2023-08-22T20:20:10.451Z,16.55
2023-08-22T20:23:14.917Z,12.88
2023-08-22T20:26:18.118Z,11.47
2023-08-22T20:29:21.283Z,11.23
2023-08-22T20:32:24.400Z,10.63
2023-08-22T20:35:27.629Z,11.30
2023-08-22T20:38:32.077Z,11.10
2023-08-22T20:41:36.959Z,10.80
2023-08-22T20:44:40.037Z,11.67
2023-08-22T20:47:43.843Z,10.27
2023-08-22T20:50:46.990Z,10.65
2023-08-22T20:53:51.469Z,10.80
2023-08-22T20:56:54.533Z,10.40
2023-08-22T20:59:58.489Z,9.80
2023-08-22T21:03:02.067Z,9.77
2023-08-22T21:06:09.812Z,9.32
2023-08-22T21:09:14.300Z,9.88
2023-08-22T21:12:17.425Z,9.60
2023-08-22T21:15:20.670Z,9.30
2023-08-22T21:18:23.893Z,9.30
2023-08-22T21:21:27.075Z,9.35
2023-08-22T21:24:43.458Z,9.60
2023-08-22T21:27:46.779Z,8.90
2023-08-22T21:30:52.187Z,9.10
2023-08-22T21:33:55.555Z,9.23
2023-08-22T21:36:58.675Z,9.20
2023-08-22T21:40:03.104Z,9.57
2023-08-22T21:43:06.546Z,9.43
2023-08-22T21:46:10.013Z,9.82
2023-08-22T21:49:13.103Z,9.13
2023-08-22T21:52:17.226Z,9.90
2023-08-22T21:55:21.682Z,9.10
2023-08-22T21:58:24.823Z,9.30
2023-08-22T22:01:27.946Z,9.30
2023-08-22T22:04:31.111Z,9.20
2023-08-22T22:07:34.423Z,9.50
2023-08-22T22:10:38.848Z,8.88
2023-08-22T22:13:41.980Z,9.73
2023-08-22T22:16:46.171Z,8.88
2023-08-22T22:19:49.411Z,8.90
2023-08-22T22:22:52.468Z,9.30
2023-08-22T22:26:03.515Z,9.18
2023-08-22T22:29:06.715Z,9.10
2023-08-22T22:32:09.929Z,9.20
2023-08-22T22:35:13.139Z,9.70
2023-08-22T22:38:16.210Z,9.50
2023-08-22T22:41:20.645Z,8.90
2023-08-22T22:44:23.786Z,9.00
2023-08-22T22:47:27.244Z,8.33
2023-08-22T22:50:30.321Z,9.20
2023-08-22T22:53:33.438Z,9.27
2023-08-22T22:56:37.911Z,9.10
2023-08-22T22:59:40.946Z,8.93
2023-08-22T23:02:44.090Z,8.57
2023-08-22T23:05:47.240Z,9.20
2023-08-22T23:08:50.252Z,9.15
2023-08-22T23:12:04.426Z,9.20
2023-08-22T23:15:16.394Z,8.63
2023-08-22T23:18:19.637Z,9.37
2023-08-22T23:21:22.772Z,8.77
2023-08-22T23:24:26.292Z,9.30
2023-08-22T23:27:32.832Z,9.07
2023-08-22T23:30:36.024Z,8.90
2023-08-22T23:33:39.127Z,9.30
2023-08-22T23:36:42.332Z,9.67
2023-08-22T23:39:45.431Z,9.77
2023-08-22T23:42:50.363Z,10.30
2023-08-22T23:45:53.367Z,10.85
2023-08-22T23:48:56.374Z,10.23
2023-08-22T23:51:59.469Z,11.00
2023-08-22T23:55:02.536Z,11.18
2023-08-22T23:58:07.037Z,11.20
